sensor_id;sensor_type;location;lat;lon;timestamp;P1;durP1;ratioP1;P2;durP2;ratioP2
11537;SDS011;50159;49.426;11.182;2023-08-21T00:01:30;11.97;;;8.93;;
11537;SDS011;50159;49.426;11.182;2023-08-21T00:03:57;9.07;;;8.27;;
11537;SDS011;50159;49.426;11.182;2023-08-21T00:06:24;8.97;;;8.13;;
11537;SDS011;50159;49.426;11.182;2023-08-21T00:08:50;8.47;;;7.63;;
11537;SDS011;50159;49.426;11.182;2023-08-21T00:11:17;9.40;;;8.60;;
11537;SDS011;50159;49.426;11.182;2023-08-21T00:13:44;11.47;;;8.57;;
11537;SDS011;50159;49.426;11.182;2023-08-21T00:16:14;9.87;;;8.37;;
11537;SDS011;50159;49.426;11.182;2023-08-21T00:18:41;11.33;;;9.10;;
11537;SDS011;50159;49.426;11.182;2023-08-21T00:21:08;8.87;;;8.03;;
11537;SDS011;50159;49.426;11.182;2023-08-21T00:23:34;9.17;;;8.27;;
11537;SDS011;50159;49.426;11.182;2023-08-21T00:26:01;9.70;;;7.90;;
11537;SDS011;50159;49.426;11.182;2023-08-21T00:28:28;7.87;;;7.17;;
11537;SDS011;50159;49.426;11.182;2023-08-21T00:31:02;8.67;;;7.80;;
11537;SDS011;50159;49.426;11.182;2023-08-21T00:33:30;10.43;;;8.97;;
11537;SDS011;50159;49.426;11.182;2023-08-21T00:35:57;8.97;;;8.07;;
11537;SDS011;50159;49.426;11.182;2023-08-21T00:38:24;13.20;;;8.50;;
11537;SDS011;50159;49.426;11.182;2023-08-21T00:40:52;8.63;;;7.83;;
11537;SDS011;50159;49.426;11.182;2023-08-21T00:43:18;8.97;;;8.07;;
11537;SDS011;50159;49.426;11.182;2023-08-21T00:45:46;9.17;;;8.23;;
11537;SDS011;50159;49.426;11.182;2023-08-21T00:48:13;8.20;;;7.40;;
11537;SDS011;50159;49.426;11.182;2023-08-21T00:50:41;8.90;;;7.80;;
11537;SDS011;50159;49.426;11.182;2023-08-21T00:53:08;8.57;;;7.77;;
11537;SDS011;50159;49.426;11.182;2023-08-21T00:55:36;11.67;;;8.03;;
11537;SDS011;50159;49.426;11.182;2023-08-21T00:58:04;11.80;;;8.67;;
11537;SDS011;50159;49.426;11.182;2023-08-21T01:00:31;8.83;;;8.03;;
11537;SDS011;50159;49.426;11.182;2023-08-21T01:03:00;9.77;;;7.97;;
11537;SDS011;50159;49.426;11.182;2023-08-21T01:05:26;9.77;;;8.77;;
11537;SDS011;50159;49.426;11.182;2023-08-21T01:07:57;9.30;;;8.50;;
11537;SDS011;50159;49.426;11.182;2023-08-21T01:13:22;12.80;;;8.60;;
11537;SDS011;50159;49.426;11.182;2023-08-21T01:15:56;9.20;;;8.27;;
11537;SDS011;50159;49.426;11.182;2023-08-21T01:18:24;10.87;;;8.80;;
11537;SDS011;50159;49.426;11.182;2023-08-21T01:20:52;11.33;;;7.80;;
11537;SDS011;50159;49.426;11.182;2023-08-21T01:23:53;9.33;;;8.37;;
11537;SDS011;50159;49.426;11.182;2023-08-21T01:26:13;9.13;;;7.73;;
11537;SDS011;50159;49.426;11.182;2023-08-21T01:28:40;9.27;;;8.33;;
11537;SDS011;50159;49.426;11.182;2023-08-21T01:33:48;9.03;;;8.13;;
11537;SDS011;50159;49.426;11.182;2023-08-21T01:36:20;9.43;;;8.60;;
11537;SDS011;50159;49.426;11.182;2023-08-21T01:38:47;8.23;;;7.43;;
11537;SDS011;50159;49.426;11.182;2023-08-21T01:41:14;9.23;;;8.43;;
11537;SDS011;50159;49.426;11.182;2023-08-21T01:43:40;14.00;;;7.97;;
11537;SDS011;50159;49.426;11.182;2023-08-21T01:46:07;9.83;;;7.97;;
11537;SDS011;50159;49.426;11.182;2023-08-21T01:48:34;14.03;;;8.40;;
11537;SDS011;50159;49.426;11.182;2023-08-21T01:51:01;9.33;;;8.43;;
11537;SDS011;50159;49.426;11.182;2023-08-21T01:53:29;10.10;;;8.87;;
11537;SDS011;50159;49.426;11.182;2023-08-21T01:55:55;9.97;;;9.00;;
11537;SDS011;50159;49.426;11.182;2023-08-21T01:58:22;12.37;;;8.87;;
11537;SDS011;50159;49.426;11.182;2023-08-21T02:00:49;9.33;;;8.33;;
11537;SDS011;50159;49.426;11.182;2023-08-21T02:03:16;8.40;;;7.60;;
11537;SDS011;50159;49.426;11.182;2023-08-21T02:05:43;9.60;;;8.63;;
11537;SDS011;50159;49.426;11.182;2023-08-21T02:08:13;9.50;;;8.60;;
11537;SDS011;50159;49.426;11.182;2023-08-21T02:10:50;9.53;;;7.93;;
11537;SDS011;50159;49.426;11.182;2023-08-21T02:13:17;11.13;;;8.43;;
11537;SDS011;50159;49.426;11.182;2023-08-21T02:15:44;9.70;;;8.67;;
11537;SDS011;50159;49.426;11.182;2023-08-21T02:18:11;9.37;;;8.47;;
11537;SDS011;50159;49.426;11.182;2023-08-21T02:20:38;9.07;;;8.27;;
11537;SDS011;50159;49.426;11.182;2023-08-21T02:23:05;8.83;;;8.07;;
11537;SDS011;50159;49.426;11.182;2023-08-21T02:25:32;11.50;;;8.67;;
11537;SDS011;50159;49.426;11.182;2023-08-21T02:27:59;8.20;;;7.57;;
11537;SDS011;50159;49.426;11.182;2023-08-21T02:30:26;9.13;;;8.27;;
11537;SDS011;50159;49.426;11.182;2023-08-21T02:32:54;9.87;;;8.33;;
11537;SDS011;50159;49.426;11.182;2023-08-21T02:35:21;9.40;;;8.60;;
11537;SDS011;50159;49.426;11.182;2023-08-21T02:37:48;8.97;;;8.17;;
11537;SDS011;50159;49.426;11.182;2023-08-21T02:40:15;9.03;;;8.20;;
11537;SDS011;50159;49.426;11.182;2023-08-21T02:42:41;8.90;;;8.13;;
11537;SDS011;50159;49.426;11.182;2023-08-21T02:45:08;9.47;;;8.37;;
11537;SDS011;50159;49.426;11.182;2023-08-21T02:47:39;8.93;;;8.07;;
11537;SDS011;50159;49.426;11.182;2023-08-21T02:50:07;8.63;;;7.93;;
11537;SDS011;50159;49.426;11.182;2023-08-21T02:52:35;12.13;;;8.73;;
11537;SDS011;50159;49.426;11.182;2023-08-21T02:55:03;8.73;;;7.83;;
11537;SDS011;50159;49.426;11.182;2023-08-21T02:57:31;9.40;;;8.40;;
11537;SDS011;50159;49.426;11.182;2023-08-21T02:59:58;10.00;;;8.03;;
11537;SDS011;50159;49.426;11.182;2023-08-21T03:02:25;10.07;;;8.87;;
11537;SDS011;50159;49.426;11.182;2023-08-21T03:04:51;9.27;;;8.23;;
11537;SDS011;50159;49.426;11.182;2023-08-21T03:07:18;9.40;;;8.43;;
11537;SDS011;50159;49.426;11.182;2023-08-21T03:09:45;9.03;;;8.23;;
11537;SDS011;50159;49.426;11.182;2023-08-21T03:12:13;9.47;;;8.23;;
11537;SDS011;50159;49.426;11.182;2023-08-21T03:14:40;9.57;;;8.73;;
11537;SDS011;50159;49.426;11.182;2023-08-21T03:17:07;10.27;;;8.73;;
11537;SDS011;50159;49.426;11.182;2023-08-21T03:19:34;9.10;;;8.27;;
11537;SDS011;50159;49.426;11.182;2023-08-21T03:22:01;10.40;;;8.33;;
11537;SDS011;50159;49.426;11.182;2023-08-21T03:24:28;9.93;;;7.80;;
11537;SDS011;50159;49.426;11.182;2023-08-21T03:26:54;13.33;;;8.77;;
11537;SDS011;50159;49.426;11.182;2023-08-21T03:29:21;9.37;;;8.57;;
11537;SDS011;50159;49.426;11.182;2023-08-21T03:31:52;9.30;;;8.30;;
11537;SDS011;50159;49.426;11.182;2023-08-21T03:34:22;10.43;;;7.70;;
11537;SDS011;50159;49.426;11.182;2023-08-21T03:36:49;9.67;;;8.57;;
11537;SDS011;50159;49.426;11.182;2023-08-21T03:39:16;8.83;;;8.10;;
11537;SDS011;50159;49.426;11.182;2023-08-21T03:41:43;8.90;;;8.20;;
11537;SDS011;50159;49.426;11.182;2023-08-21T03:44:10;9.50;;;8.63;;
11537;SDS011;50159;49.426;11.182;2023-08-21T03:46:36;9.47;;;8.40;;
11537;SDS011;50159;49.426;11.182;2023-08-21T03:49:03;9.47;;;8.60;;
11537;SDS011;50159;49.426;11.182;2023-08-21T03:51:30;9.47;;;8.37;;
11537;SDS011;50159;49.426;11.182;2023-08-21T03:53:57;10.97;;;8.17;;
11537;SDS011;50159;49.426;11.182;2023-08-21T03:56:23;9.33;;;8.00;;
11537;SDS011;50159;49.426;11.182;2023-08-21T03:58:51;9.00;;;8.10;;
11537;SDS011;50159;49.426;11.182;2023-08-21T04:01:17;9.37;;;8.40;;
11537;SDS011;50159;49.426;11.182;2023-08-21T04:03:44;8.97;;;8.13;;
11537;SDS011;50159;49.426;11.182;2023-08-21T04:06:11;9.03;;;8.27;;
11537;SDS011;50159;49.426;11.182;2023-08-21T04:08:37;8.83;;;8.00;;
11537;SDS011;50159;49.426;11.182;2023-08-21T04:11:05;10.43;;;7.53;;
11537;SDS011;50159;49.426;11.182;2023-08-21T04:13:32;10.03;;;9.07;;
11537;SDS011;50159;49.426;11.182;2023-08-21T04:15:59;9.17;;;8.07;;
11537;SDS011;50159;49.426;11.182;2023-08-21T04:18:26;11.03;;;8.63;;
11537;SDS011;50159;49.426;11.182;2023-08-21T04:21:06;12.23;;;8.20;;
11537;SDS011;50159;49.426;11.182;2023-08-21T04:23:33;9.80;;;8.70;;
11537;SDS011;50159;49.426;11.182;2023-08-21T04:26:00;9.10;;;8.40;;
11537;SDS011;50159;49.426;11.182;2023-08-21T04:28:32;10.27;;;8.90;;
11537;SDS011;50159;49.426;11.182;2023-08-21T04:30:59;9.50;;;8.57;;
11537;SDS011;50159;49.426;11.182;2023-08-21T04:33:27;9.27;;;8.33;;
11537;SDS011;50159;49.426;11.182;2023-08-21T04:35:55;9.43;;;8.53;;
11537;SDS011;50159;49.426;11.182;2023-08-21T04:38:22;10.63;;;8.87;;
11537;SDS011;50159;49.426;11.182;2023-08-21T04:40:48;9.77;;;8.83;;
11537;SDS011;50159;49.426;11.182;2023-08-21T04:43:15;8.87;;;8.07;;
11537;SDS011;50159;49.426;11.182;2023-08-21T04:45:48;9.77;;;8.97;;
11537;SDS011;50159;49.426;11.182;2023-08-21T04:48:16;9.73;;;8.83;;
11537;SDS011;50159;49.426;11.182;2023-08-21T04:50:43;10.27;;;9.27;;
11537;SDS011;50159;49.426;11.182;2023-08-21T04:53:09;8.70;;;8.00;;
11537;SDS011;50159;49.426;11.182;2023-08-21T04:55:37;8.77;;;8.07;;
11537;SDS011;50159;49.426;11.182;2023-08-21T04:58:07;8.60;;;7.93;;
11537;SDS011;50159;49.426;11.182;2023-08-21T05:00:34;8.83;;;8.13;;
11537;SDS011;50159;49.426;11.182;2023-08-21T05:03:00;8.73;;;7.93;;
11537;SDS011;50159;49.426;11.182;2023-08-21T05:05:27;8.37;;;7.57;;
11537;SDS011;50159;49.426;11.182;2023-08-21T05:07:54;8.00;;;7.40;;
11537;SDS011;50159;49.426;11.182;2023-08-21T05:10:21;8.20;;;7.37;;
11537;SDS011;50159;49.426;11.182;2023-08-21T05:12:48;9.00;;;8.07;;
11537;SDS011;50159;49.426;11.182;2023-08-21T05:15:15;8.50;;;7.70;;
11537;SDS011;50159;49.426;11.182;2023-08-21T05:17:42;8.47;;;7.67;;
11537;SDS011;50159;49.426;11.182;2023-08-21T05:20:09;8.80;;;8.00;;
11537;SDS011;50159;49.426;11.182;2023-08-21T05:22:40;7.57;;;7.03;;
11537;SDS011;50159;49.426;11.182;2023-08-21T05:25:07;8.23;;;7.63;;
11537;SDS011;50159;49.426;11.182;2023-08-21T05:27:34;8.63;;;7.93;;
11537;SDS011;50159;49.426;11.182;2023-08-21T05:30:01;8.30;;;7.60;;
11537;SDS011;50159;49.426;11.182;2023-08-21T05:32:27;8.33;;;7.73;;
11537;SDS011;50159;49.426;11.182;2023-08-21T05:34:54;8.83;;;8.13;;
11537;SDS011;50159;49.426;11.182;2023-08-21T05:37:21;9.37;;;8.57;;
11537;SDS011;50159;49.426;11.182;2023-08-21T05:39:47;8.30;;;7.60;;
11537;SDS011;50159;49.426;11.182;2023-08-21T05:42:15;8.97;;;8.07;;
11537;SDS011;50159;49.426;11.182;2023-08-21T05:44:41;8.20;;;7.50;;
11537;SDS011;50159;49.426;11.182;2023-08-21T05:47:08;8.07;;;7.37;;
11537;SDS011;50159;49.426;11.182;2023-08-21T05:49:35;7.53;;;6.93;;
11537;SDS011;50159;49.426;11.182;2023-08-21T05:52:01;7.77;;;7.07;;
11537;SDS011;50159;49.426;11.182;2023-08-21T05:54:28;7.10;;;6.60;;
11537;SDS011;50159;49.426;11.182;2023-08-21T05:56:57;7.23;;;6.53;;
11537;SDS011;50159;49.426;11.182;2023-08-21T05:59:27;6.57;;;6.17;;
11537;SDS011;50159;49.426;11.182;2023-08-21T06:01:56;6.30;;;5.90;;
11537;SDS011;50159;49.426;11.182;2023-08-21T06:04:23;7.03;;;6.50;;
11537;SDS011;50159;49.426;11.182;2023-08-21T06:06:51;6.80;;;6.30;;
11537;SDS011;50159;49.426;11.182;2023-08-21T06:09:17;7.20;;;6.53;;
11537;SDS011;50159;49.426;11.182;2023-08-21T06:11:45;7.00;;;6.30;;
11537;SDS011;50159;49.426;11.182;2023-08-21T06:14:12;6.40;;;5.97;;
11537;SDS011;50159;49.426;11.182;2023-08-21T06:16:38;6.87;;;6.27;;
11537;SDS011;50159;49.426;11.182;2023-08-21T06:19:06;6.53;;;6.03;;
11537;SDS011;50159;49.426;11.182;2023-08-21T06:21:32;6.50;;;6.00;;
11537;SDS011;50159;49.426;11.182;2023-08-21T06:23:59;6.73;;;6.27;;
11537;SDS011;50159;49.426;11.182;2023-08-21T06:26:26;6.43;;;6.03;;
11537;SDS011;50159;49.426;11.182;2023-08-21T06:28:52;7.57;;;6.97;;
11537;SDS011;50159;49.426;11.182;2023-08-21T06:31:19;6.33;;;5.93;;
11537;SDS011;50159;49.426;11.182;2023-08-21T06:33:46;7.17;;;6.67;;
11537;SDS011;50159;49.426;11.182;2023-08-21T06:36:13;6.70;;;6.20;;
11537;SDS011;50159;49.426;11.182;2023-08-21T06:38:40;6.73;;;6.33;;
11537;SDS011;50159;49.426;11.182;2023-08-21T06:41:07;6.67;;;6.20;;
11537;SDS011;50159;49.426;11.182;2023-08-21T06:43:38;6.73;;;6.23;;
11537;SDS011;50159;49.426;11.182;2023-08-21T06:46:10;6.10;;;5.67;;
11537;SDS011;50159;49.426;11.182;2023-08-21T06:48:38;6.77;;;6.37;;
11537;SDS011;50159;49.426;11.182;2023-08-21T06:51:07;8.20;;;7.50;;
11537;SDS011;50159;49.426;11.182;2023-08-21T06:53:34;8.53;;;7.73;;
11537;SDS011;50159;49.426;11.182;2023-08-21T06:56:00;8.47;;;7.87;;
11537;SDS011;50159;49.426;11.182;2023-08-21T06:58:27;7.50;;;7.00;;
11537;SDS011;50159;49.426;11.182;2023-08-21T07:00:55;7.00;;;6.50;;
11537;SDS011;50159;49.426;11.182;2023-08-21T07:03:22;6.87;;;6.37;;
11537;SDS011;50159;49.426;11.182;2023-08-21T07:08:22;6.60;;;6.20;;
11537;SDS011;50159;49.426;11.182;2023-08-21T07:10:50;6.47;;;6.07;;
11537;SDS011;50159;49.426;11.182;2023-08-21T07:13:17;6.90;;;6.40;;
11537;SDS011;50159;49.426;11.182;2023-08-21T07:15:44;6.67;;;6.17;;
11537;SDS011;50159;49.426;11.182;2023-08-21T07:18:12;6.30;;;5.90;;
11537;SDS011;50159;49.426;11.182;2023-08-21T07:20:42;5.80;;;5.43;;
11537;SDS011;50159;49.426;11.182;2023-08-21T07:23:08;5.73;;;5.43;;
11537;SDS011;50159;49.426;11.182;2023-08-21T07:25:35;5.97;;;5.57;;
11537;SDS011;50159;49.426;11.182;2023-08-21T07:28:02;5.50;;;5.20;;
11537;SDS011;50159;49.426;11.182;2023-08-21T07:30:29;5.47;;;5.10;;
11537;SDS011;50159;49.426;11.182;2023-08-21T07:32:58;5.43;;;5.13;;
11537;SDS011;50159;49.426;11.182;2023-08-21T07:35:25;5.80;;;5.40;;
11537;SDS011;50159;49.426;11.182;2023-08-21T07:37:51;5.80;;;5.50;;
11537;SDS011;50159;49.426;11.182;2023-08-21T07:40:18;5.20;;;4.90;;
11537;SDS011;50159;49.426;11.182;2023-08-21T07:42:45;5.73;;;5.33;;
11537;SDS011;50159;49.426;11.182;2023-08-21T07:45:11;6.03;;;5.63;;
11537;SDS011;50159;49.426;11.182;2023-08-21T07:47:38;5.60;;;5.20;;
11537;SDS011;50159;49.426;11.182;2023-08-21T07:50:05;6.00;;;5.60;;
11537;SDS011;50159;49.426;11.182;2023-08-21T07:52:33;5.27;;;4.97;;
11537;SDS011;50159;49.426;11.182;2023-08-21T07:55:02;5.67;;;5.37;;
11537;SDS011;50159;49.426;11.182;2023-08-21T07:57:29;4.50;;;4.30;;
11537;SDS011;50159;49.426;11.182;2023-08-21T07:59:56;5.60;;;5.30;;
11537;SDS011;50159;49.426;11.182;2023-08-21T08:02:24;5.43;;;5.13;;
11537;SDS011;50159;49.426;11.182;2023-08-21T08:04:51;5.40;;;5.10;;
11537;SDS011;50159;49.426;11.182;2023-08-21T08:07:18;5.70;;;5.37;;
11537;SDS011;50159;49.426;11.182;2023-08-21T08:09:45;6.53;;;5.47;;
11537;SDS011;50159;49.426;11.182;2023-08-21T08:12:13;6.87;;;6.17;;
11537;SDS011;50159;49.426;11.182;2023-08-21T08:14:40;7.27;;;6.77;;
11537;SDS011;50159;49.426;11.182;2023-08-21T08:17:06;7.43;;;6.87;;
11537;SDS011;50159;49.426;11.182;2023-08-21T08:19:33;7.07;;;6.53;;
11537;SDS011;50159;49.426;11.182;2023-08-21T08:22:00;7.40;;;6.77;;
11537;SDS011;50159;49.426;11.182;2023-08-21T08:24:26;7.73;;;7.17;;
11537;SDS011;50159;49.426;11.182;2023-08-21T08:26:53;7.50;;;6.90;;
11537;SDS011;50159;49.426;11.182;2023-08-21T08:29:20;7.03;;;6.53;;
11537;SDS011;50159;49.426;11.182;2023-08-21T08:31:46;8.07;;;7.47;;
11537;SDS011;50159;49.426;11.182;2023-08-21T08:34:13;8.30;;;7.50;;
11537;SDS011;50159;49.426;11.182;2023-08-21T08:36:40;7.53;;;6.97;;
11537;SDS011;50159;49.426;11.182;2023-08-21T08:39:07;6.80;;;6.30;;
11537;SDS011;50159;49.426;11.182;2023-08-21T08:41:44;6.53;;;6.13;;
11537;SDS011;50159;49.426;11.182;2023-08-21T08:44:29;7.33;;;6.70;;
11537;SDS011;50159;49.426;11.182;2023-08-21T08:46:56;8.60;;;8.00;;
11537;SDS011;50159;49.426;11.182;2023-08-21T08:49:23;8.13;;;7.43;;
11537;SDS011;50159;49.426;11.182;2023-08-21T08:51:51;8.33;;;7.63;;
11537;SDS011;50159;49.426;11.182;2023-08-21T08:54:20;9.20;;;8.23;;
11537;SDS011;50159;49.426;11.182;2023-08-21T08:56:48;8.60;;;7.87;;
11537;SDS011;50159;49.426;11.182;2023-08-21T08:59:15;7.83;;;7.33;;
11537;SDS011;50159;49.426;11.182;2023-08-21T09:01:42;8.57;;;7.80;;
11537;SDS011;50159;49.426;11.182;2023-08-21T09:04:09;9.00;;;8.30;;
11537;SDS011;50159;49.426;11.182;2023-08-21T09:06:36;8.90;;;8.20;;
11537;SDS011;50159;49.426;11.182;2023-08-21T09:09:03;9.67;;;8.77;;
11537;SDS011;50159;49.426;11.182;2023-08-21T09:11:32;9.57;;;8.73;;
11537;SDS011;50159;49.426;11.182;2023-08-21T09:13:59;8.90;;;8.00;;
11537;SDS011;50159;49.426;11.182;2023-08-21T09:16:26;9.17;;;8.47;;
11537;SDS011;50159;49.426;11.182;2023-08-21T09:18:53;8.57;;;7.77;;
11537;SDS011;50159;49.426;11.182;2023-08-21T09:21:24;7.67;;;6.97;;
11537;SDS011;50159;49.426;11.182;2023-08-21T09:23:58;8.53;;;7.93;;
11537;SDS011;50159;49.426;11.182;2023-08-21T09:26:26;8.33;;;7.63;;
11537;SDS011;50159;49.426;11.182;2023-08-21T09:28:53;8.67;;;7.93;;
11537;SDS011;50159;49.426;11.182;2023-08-21T09:31:23;8.97;;;8.17;;
11537;SDS011;50159;49.426;11.182;2023-08-21T09:33:58;8.47;;;7.77;;
11537;SDS011;50159;49.426;11.182;2023-08-21T09:36:27;8.40;;;7.80;;
11537;SDS011;50159;49.426;11.182;2023-08-21T09:38:54;8.10;;;7.43;;
11537;SDS011;50159;49.426;11.182;2023-08-21T09:41:25;7.30;;;6.80;;
11537;SDS011;50159;49.426;11.182;2023-08-21T09:43:52;7.90;;;7.30;;
11537;SDS011;50159;49.426;11.182;2023-08-21T09:46:24;8.37;;;7.13;;
11537;SDS011;50159;49.426;11.182;2023-08-21T09:48:52;7.57;;;6.97;;
11537;SDS011;50159;49.426;11.182;2023-08-21T09:51:20;8.53;;;7.80;;
11537;SDS011;50159;49.426;11.182;2023-08-21T09:53:47;8.20;;;7.50;;
11537;SDS011;50159;49.426;11.182;2023-08-21T09:56:17;8.00;;;7.30;;
11537;SDS011;50159;49.426;11.182;2023-08-21T09:58:46;7.80;;;7.23;;
11537;SDS011;50159;49.426;11.182;2023-08-21T10:01:14;7.10;;;6.60;;
11537;SDS011;50159;49.426;11.182;2023-08-21T10:03:43;7.73;;;6.77;;
11537;SDS011;50159;49.426;11.182;2023-08-21T10:06:15;6.90;;;6.40;;
11537;SDS011;50159;49.426;11.182;2023-08-21T10:08:48;6.40;;;5.90;;
11537;SDS011;50159;49.426;11.182;2023-08-21T10:11:20;5.93;;;5.53;;
11537;SDS011;50159;49.426;11.182;2023-08-21T10:13:47;6.27;;;5.80;;
11537;SDS011;50159;49.426;11.182;2023-08-21T10:16:17;6.73;;;6.23;;
11537;SDS011;50159;49.426;11.182;2023-08-21T10:18:47;6.77;;;6.30;;
11537;SDS011;50159;49.426;11.182;2023-08-21T10:21:15;6.03;;;5.63;;
11537;SDS011;50159;49.426;11.182;2023-08-21T10:23:50;6.10;;;5.60;;
11537;SDS011;50159;49.426;11.182;2023-08-21T10:26:21;6.67;;;5.97;;
11537;SDS011;50159;49.426;11.182;2023-08-21T10:28:52;6.53;;;5.93;;
11537;SDS011;50159;49.426;11.182;2023-08-21T10:34:03;6.77;;;6.17;;
11537;SDS011;50159;49.426;11.182;2023-08-21T10:39:05;6.60;;;6.07;;
11537;SDS011;50159;49.426;11.182;2023-08-21T10:41:40;7.47;;;6.60;;
11537;SDS011;50159;49.426;11.182;2023-08-21T10:44:07;6.80;;;6.30;;
11537;SDS011;50159;49.426;11.182;2023-08-21T10:46:50;6.53;;;5.93;;
11537;SDS011;50159;49.426;11.182;2023-08-21T10:49:19;7.47;;;5.60;;
11537;SDS011;50159;49.426;11.182;2023-08-21T10:51:46;5.90;;;5.50;;
11537;SDS011;50159;49.426;11.182;2023-08-21T10:54:13;6.27;;;5.77;;
11537;SDS011;50159;49.426;11.182;2023-08-21T10:56:40;6.23;;;5.60;;
11537;SDS011;50159;49.426;11.182;2023-08-21T10:59:07;5.47;;;5.07;;
11537;SDS011;50159;49.426;11.182;2023-08-21T11:01:45;4.97;;;4.67;;
11537;SDS011;50159;49.426;11.182;2023-08-21T11:04:12;5.10;;;4.80;;
11537;SDS011;50159;49.426;11.182;2023-08-21T11:06:40;4.83;;;4.43;;
11537;SDS011;50159;49.426;11.182;2023-08-21T11:09:12;5.03;;;4.50;;
11537;SDS011;50159;49.426;11.182;2023-08-21T11:11:39;5.03;;;4.50;;
11537;SDS011;50159;49.426;11.182;2023-08-21T11:14:06;8.00;;;5.17;;
11537;SDS011;50159;49.426;11.182;2023-08-21T11:16:33;5.37;;;4.80;;
11537;SDS011;50159;49.426;11.182;2023-08-21T11:19:03;5.17;;;4.73;;
11537;SDS011;50159;49.426;11.182;2023-08-21T11:21:31;5.47;;;4.97;;
11537;SDS011;50159;49.426;11.182;2023-08-21T11:23:57;5.23;;;4.73;;
11537;SDS011;50159;49.426;11.182;2023-08-21T11:26:24;5.57;;;4.93;;
11537;SDS011;50159;49.426;11.182;2023-08-21T11:28:51;4.70;;;4.33;;
11537;SDS011;50159;49.426;11.182;2023-08-21T11:31:18;7.07;;;5.20;;
11537;SDS011;50159;49.426;11.182;2023-08-21T11:33:49;5.47;;;5.00;;
11537;SDS011;50159;49.426;11.182;2023-08-21T11:36:16;6.40;;;5.23;;
11537;SDS011;50159;49.426;11.182;2023-08-21T11:38:54;5.13;;;4.73;;
11537;SDS011;50159;49.426;11.182;2023-08-21T11:41:25;6.00;;;5.60;;
11537;SDS011;50159;49.426;11.182;2023-08-21T11:43:52;6.27;;;4.87;;
11537;SDS011;50159;49.426;11.182;2023-08-21T11:46:19;5.40;;;4.90;;
11537;SDS011;50159;49.426;11.182;2023-08-21T11:48:46;5.30;;;4.90;;
11537;SDS011;50159;49.426;11.182;2023-08-21T11:51:12;5.27;;;4.77;;
11537;SDS011;50159;49.426;11.182;2023-08-21T11:53:40;6.93;;;4.57;;
11537;SDS011;50159;49.426;11.182;2023-08-21T11:56:14;4.50;;;4.20;;
11537;SDS011;50159;49.426;11.182;2023-08-21T11:58:43;5.00;;;4.50;;
11537;SDS011;50159;49.426;11.182;2023-08-21T12:01:18;4.93;;;4.63;;
11537;SDS011;50159;49.426;11.182;2023-08-21T12:03:46;6.33;;;4.90;;
11537;SDS011;50159;49.426;11.182;2023-08-21T12:06:21;5.20;;;4.80;;
11537;SDS011;50159;49.426;11.182;2023-08-21T12:08:48;5.30;;;4.50;;
11537;SDS011;50159;49.426;11.182;2023-08-21T12:11:15;5.23;;;4.83;;
11537;SDS011;50159;49.426;11.182;2023-08-21T12:13:41;6.47;;;4.57;;
11537;SDS011;50159;49.426;11.182;2023-08-21T12:16:08;5.23;;;4.93;;
11537;SDS011;50159;49.426;11.182;2023-08-21T12:18:35;4.93;;;4.57;;
11537;SDS011;50159;49.426;11.182;2023-08-21T12:21:02;6.23;;;5.03;;
11537;SDS011;50159;49.426;11.182;2023-08-21T12:23:28;6.47;;;5.33;;
11537;SDS011;50159;49.426;11.182;2023-08-21T12:25:55;5.70;;;5.10;;
11537;SDS011;50159;49.426;11.182;2023-08-21T12:28:22;5.37;;;5.00;;
11537;SDS011;50159;49.426;11.182;2023-08-21T12:30:48;4.90;;;4.50;;
11537;SDS011;50159;49.426;11.182;2023-08-21T12:33:15;5.33;;;4.83;;
11537;SDS011;50159;49.426;11.182;2023-08-21T12:35:49;5.33;;;4.93;;
11537;SDS011;50159;49.426;11.182;2023-08-21T12:38:16;5.30;;;4.83;;
11537;SDS011;50159;49.426;11.182;2023-08-21T12:40:43;5.73;;;5.23;;
11537;SDS011;50159;49.426;11.182;2023-08-21T12:43:10;7.20;;;5.70;;
11537;SDS011;50159;49.426;11.182;2023-08-21T12:45:37;7.17;;;5.33;;
11537;SDS011;50159;49.426;11.182;2023-08-21T12:48:04;6.20;;;5.33;;
11537;SDS011;50159;49.426;11.182;2023-08-21T12:50:31;5.17;;;4.67;;
11537;SDS011;50159;49.426;11.182;2023-08-21T12:52:59;6.40;;;5.13;;
11537;SDS011;50159;49.426;11.182;2023-08-21T12:55:25;4.73;;;4.43;;
11537;SDS011;50159;49.426;11.182;2023-08-21T12:57:53;4.53;;;4.23;;
11537;SDS011;50159;49.426;11.182;2023-08-21T13:00:21;4.60;;;4.20;;
11537;SDS011;50159;49.426;11.182;2023-08-21T13:02:47;5.33;;;4.87;;
11537;SDS011;50159;49.426;11.182;2023-08-21T13:05:15;5.30;;;4.80;;
11537;SDS011;50159;49.426;11.182;2023-08-21T13:07:41;6.10;;;5.07;;
11537;SDS011;50159;49.426;11.182;2023-08-21T13:10:08;4.97;;;4.60;;
11537;SDS011;50159;49.426;11.182;2023-08-21T13:12:35;4.60;;;4.20;;
11537;SDS011;50159;49.426;11.182;2023-08-21T13:15:03;4.73;;;4.43;;
11537;SDS011;50159;49.426;11.182;2023-08-21T13:17:31;4.70;;;4.40;;
11537;SDS011;50159;49.426;11.182;2023-08-21T13:19:57;4.60;;;4.30;;
11537;SDS011;50159;49.426;11.182;2023-08-21T13:22:24;5.63;;;4.63;;
11537;SDS011;50159;49.426;11.182;2023-08-21T13:24:51;5.80;;;5.40;;
11537;SDS011;50159;49.426;11.182;2023-08-21T13:27:17;4.33;;;4.03;;
11537;SDS011;50159;49.426;11.182;2023-08-21T13:29:45;4.10;;;3.90;;
11537;SDS011;50159;49.426;11.182;2023-08-21T13:32:12;5.37;;;4.97;;
11537;SDS011;50159;49.426;11.182;2023-08-21T13:34:39;5.57;;;5.07;;
11537;SDS011;50159;49.426;11.182;2023-08-21T13:37:05;5.43;;;4.87;;
11537;SDS011;50159;49.426;11.182;2023-08-21T13:39:32;4.63;;;4.33;;
11537;SDS011;50159;49.426;11.182;2023-08-21T13:42:01;4.37;;;4.13;;
11537;SDS011;50159;49.426;11.182;2023-08-21T13:44:28;5.27;;;4.73;;
11537;SDS011;50159;49.426;11.182;2023-08-21T13:46:55;4.93;;;4.53;;
11537;SDS011;50159;49.426;11.182;2023-08-21T13:49:21;5.40;;;5.00;;
11537;SDS011;50159;49.426;11.182;2023-08-21T13:51:48;4.40;;;4.20;;
11537;SDS011;50159;49.426;11.182;2023-08-21T13:54:15;4.93;;;4.60;;
11537;SDS011;50159;49.426;11.182;2023-08-21T13:56:41;5.30;;;4.90;;
11537;SDS011;50159;49.426;11.182;2023-08-21T13:59:08;4.80;;;4.33;;
11537;SDS011;50159;49.426;11.182;2023-08-21T14:01:35;5.53;;;5.00;;
11537;SDS011;50159;49.426;11.182;2023-08-21T14:04:02;4.63;;;4.33;;
11537;SDS011;50159;49.426;11.182;2023-08-21T14:06:32;5.17;;;4.87;;
11537;SDS011;50159;49.426;11.182;2023-08-21T14:08:58;6.17;;;5.10;;
11537;SDS011;50159;49.426;11.182;2023-08-21T14:11:25;6.80;;;4.90;;
11537;SDS011;50159;49.426;11.182;2023-08-21T14:13:52;5.13;;;4.73;;
11537;SDS011;50159;49.426;11.182;2023-08-21T14:16:18;5.00;;;4.60;;
11537;SDS011;50159;49.426;11.182;2023-08-21T14:18:45;7.60;;;4.40;;
11537;SDS011;50159;49.426;11.182;2023-08-21T14:21:12;4.90;;;4.60;;
11537;SDS011;50159;49.426;11.182;2023-08-21T14:23:38;6.03;;;4.50;;
11537;SDS011;50159;49.426;11.182;2023-08-21T14:26:05;3.93;;;3.73;;
11537;SDS011;50159;49.426;11.182;2023-08-21T14:28:32;4.00;;;3.60;;
11537;SDS011;50159;49.426;11.182;2023-08-21T14:30:59;4.33;;;3.53;;
11537;SDS011;50159;49.426;11.182;2023-08-21T14:33:26;4.10;;;3.70;;
11537;SDS011;50159;49.426;11.182;2023-08-21T14:35:52;3.87;;;3.57;;
11537;SDS011;50159;49.426;11.182;2023-08-21T14:38:19;3.70;;;3.50;;
11537;SDS011;50159;49.426;11.182;2023-08-21T14:40:46;3.83;;;3.50;;
11537;SDS011;50159;49.426;11.182;2023-08-21T14:43:13;3.15;;;2.95;;
11537;SDS011;50159;49.426;11.182;2023-08-21T14:45:40;3.33;;;3.13;;
11537;SDS011;50159;49.426;11.182;2023-08-21T14:48:07;3.00;;;2.90;;
11537;SDS011;50159;49.426;11.182;2023-08-21T14:50:34;3.40;;;3.17;;